sensor_id;sensor_type;location;lat;lon;timestamp;pressure;altitude;pressure_sealevel;temperature;humidity
75221;BME280;63802;53.232;6.570;2022-12-18T00:01:03;102884.25;;;-4.41;95.13
75221;BME280;63802;53.232;6.570;2022-12-18T00:03:35;102880.75;;;-4.35;95.69
75221;BME280;63802;53.232;6.570;2022-12-18T00:06:01;102876.28;;;-4.41;95.05
75221;BME280;63802;53.232;6.570;2022-12-18T00:08:26;102893.91;;;-4.40;95.01
75221;BME280;63802;53.232;6.570;2022-12-18T00:10:51;102899.22;;;-4.40;95.54
75221;BME280;63802;53.232;6.570;2022-12-18T00:13:17;102897.75;;;-4.36;95.12
75221;BME280;63802;53.232;6.570;2022-12-18T00:15:43;102898.38;;;-4.34;95.40
75221;BME280;63802;53.232;6.570;2022-12-18T00:18:09;102896.78;;;-4.48;95.43
75221;BME280;63802;53.232;6.570;2022-12-18T00:20:38;102885.72;;;-4.45;95.10
75221;BME280;63802;53.232;6.570;2022-12-18T00:23:05;102893.13;;;-4.47;95.34
75221;BME280;63802;53.232;6.570;2022-12-18T00:25:34;102893.13;;;-4.47;95.35
75221;BME280;63802;53.232;6.570;2022-12-18T00:28:01;102893.94;;;-4.46;95.37
75221;BME280;63802;53.232;6.570;2022-12-18T00:30:28;102878.75;;;-4.46;95.45
75221;BME280;63802;53.232;6.570;2022-12-18T00:32:54;102887.78;;;-4.47;95.43
75221;BME280;63802;53.232;6.570;2022-12-18T00:35:20;102887.78;;;-4.47;95.56
75221;BME280;63802;53.232;6.570;2022-12-18T00:37:46;102893.53;;;-4.50;95.40
75221;BME280;63802;53.232;6.570;2022-12-18T00:40:12;102896.59;;;-4.53;95.03
75221;BME280;63802;53.232;6.570;2022-12-18T00:42:37;102891.13;;;-4.64;95.19
75221;BME280;63802;53.232;6.570;2022-12-18T00:45:25;102913.03;;;-4.56;95.40
75221;BME280;63802;53.232;6.570;2022-12-18T00:47:52;102914.47;;;-4.60;95.08
75221;BME280;63802;53.232;6.570;2022-12-18T00:50:18;102912.84;;;-4.61;95.35
75221;BME280;63802;53.232;6.570;2022-12-18T00:52:43;102911.78;;;-4.60;95.21
75221;BME280;63802;53.232;6.570;2022-12-18T00:55:09;102895.63;;;-4.65;95.34
75221;BME280;63802;53.232;6.570;2022-12-18T00:57:34;102899.34;;;-4.66;95.12
75221;BME280;63802;53.232;6.570;2022-12-18T01:00:01;102903.84;;;-4.66;95.32
75221;BME280;63802;53.232;6.570;2022-12-18T01:02:27;102901.81;;;-4.71;95.35
75221;BME280;63802;53.232;6.570;2022-12-18T01:04:52;102898.53;;;-4.73;95.07
75221;BME280;63802;53.232;6.570;2022-12-18T01:07:18;102895.06;;;-4.73;94.95
75221;BME280;63802;53.232;6.570;2022-12-18T01:09:43;102899.75;;;-4.69;95.15
75221;BME280;63802;53.232;6.570;2022-12-18T01:12:09;102901.81;;;-4.71;95.01
75221;BME280;63802;53.232;6.570;2022-12-18T01:14:34;102908.38;;;-4.73;95.25
75221;BME280;63802;53.232;6.570;2022-12-18T01:17:00;102911.22;;;-4.75;95.45
75221;BME280;63802;53.232;6.570;2022-12-18T01:19:28;102910.63;;;-4.77;95.60
75221;BME280;63802;53.232;6.570;2022-12-18T01:21:53;102916.56;;;-4.75;94.84
75221;BME280;63802;53.232;6.570;2022-12-18T01:24:18;102920.25;;;-4.76;95.46
75221;BME280;63802;53.232;6.570;2022-12-18T01:26:44;102903.88;;;-4.80;95.54
75221;BME280;63802;53.232;6.570;2022-12-18T01:29:09;102915.34;;;-4.79;95.00
75221;BME280;63802;53.232;6.570;2022-12-18T01:31:35;102928.03;;;-4.81;94.93
75221;BME280;63802;53.232;6.570;2022-12-18T01:34:01;102930.94;;;-4.83;95.13
75221;BME280;63802;53.232;6.570;2022-12-18T01:36:29;102923.94;;;-4.84;95.37
75221;BME280;63802;53.232;6.570;2022-12-18T01:38:55;102930.50;;;-4.86;95.02
75221;BME280;63802;53.232;6.570;2022-12-18T01:41:23;102936.69;;;-4.92;95.21
75221;BME280;63802;53.232;6.570;2022-12-18T01:43:55;102940.97;;;-4.91;95.35
75221;BME280;63802;53.232;6.570;2022-12-18T01:46:26;102939.34;;;-4.92;95.23
75221;BME280;63802;53.232;6.570;2022-12-18T01:49:00;102934.63;;;-4.90;95.01
75221;BME280;63802;53.232;6.570;2022-12-18T01:51:27;102920.91;;;-5.00;95.17
75221;BME280;63802;53.232;6.570;2022-12-18T01:53:53;102932.78;;;-4.96;95.26
75221;BME280;63802;53.232;6.570;2022-12-18T01:56:20;102930.97;;;-5.02;94.95
75221;BME280;63802;53.232;6.570;2022-12-18T01:59:02;102924.00;;;-5.03;94.98
75221;BME280;63802;53.232;6.570;2022-12-18T02:01:29;102935.47;;;-5.03;95.29
75221;BME280;63802;53.232;6.570;2022-12-18T02:03:56;102929.75;;;-5.06;95.35
75221;BME280;63802;53.232;6.570;2022-12-18T02:06:41;102942.84;;;-5.11;95.46
75221;BME280;63802;53.232;6.570;2022-12-18T02:09:12;102946.94;;;-5.15;94.86
75221;BME280;63802;53.232;6.570;2022-12-18T02:12:07;102950.19;;;-5.13;94.88
75221;BME280;63802;53.232;6.570;2022-12-18T02:17:12;102945.31;;;-5.16;95.01
75221;BME280;63802;53.232;6.570;2022-12-18T02:27:54;102938.75;;;-5.20;95.45
75221;BME280;63802;53.232;6.570;2022-12-18T02:30:22;102936.31;;;-5.28;95.19
75221;BME280;63802;53.232;6.570;2022-12-18T02:32:52;102933.63;;;-5.35;95.01
75221;BME280;63802;53.232;6.570;2022-12-18T02:35:23;102936.09;;;-5.33;94.71
75221;BME280;63802;53.232;6.570;2022-12-18T02:37:53;102937.13;;;-5.34;95.20
75221;BME280;63802;53.232;6.570;2022-12-18T02:40:20;102926.91;;;-5.37;95.43
75221;BME280;63802;53.232;6.570;2022-12-18T02:42:47;102927.91;;;-5.38;95.26
75221;BME280;63802;53.232;6.570;2022-12-18T02:45:12;102915.41;;;-5.45;95.59
75221;BME280;63802;53.232;6.570;2022-12-18T02:47:40;102915.00;;;-5.42;95.47
75221;BME280;63802;53.232;6.570;2022-12-18T02:50:34;102915.41;;;-5.45;94.79
75221;BME280;63802;53.232;6.570;2022-12-18T02:53:27;102903.56;;;-5.49;95.38
75221;BME280;63802;53.232;6.570;2022-12-18T02:56:05;102919.91;;;-5.52;95.58
75221;BME280;63802;53.232;6.570;2022-12-18T03:01:16;102908.47;;;-5.59;94.96
75221;BME280;63802;53.232;6.570;2022-12-18T03:04:00;102918.91;;;-5.57;95.21
75221;BME280;63802;53.232;6.570;2022-12-18T03:06:30;102918.09;;;-5.58;95.38
75221;BME280;63802;53.232;6.570;2022-12-18T03:09:00;102929.34;;;-5.62;95.17
75221;BME280;63802;53.232;6.570;2022-12-18T03:11:28;102933.84;;;-5.63;94.83
75221;BME280;63802;53.232;6.570;2022-12-18T03:14:15;102931.56;;;-5.66;95.03
75221;BME280;63802;53.232;6.570;2022-12-18T03:16:42;102928.31;;;-5.68;94.75
75221;BME280;63802;53.232;6.570;2022-12-18T03:19:12;102926.88;;;-5.70;95.41
75221;BME280;63802;53.232;6.570;2022-12-18T03:21:49;102928.09;;;-5.73;94.75
75221;BME280;63802;53.232;6.570;2022-12-18T03:24:17;102930.13;;;-5.75;95.14
75221;BME280;63802;53.232;6.570;2022-12-18T03:26:46;102928.91;;;-5.72;95.07
75221;BME280;63802;53.232;6.570;2022-12-18T03:29:17;102923.16;;;-5.76;95.14
75221;BME280;63802;53.232;6.570;2022-12-18T03:31:52;102915.00;;;-5.81;95.40
75221;BME280;63802;53.232;6.570;2022-12-18T03:34:24;102920.31;;;-5.81;95.47
75221;BME280;63802;53.232;6.570;2022-12-18T03:36:52;102918.69;;;-5.75;95.23
75221;BME280;63802;53.232;6.570;2022-12-18T03:39:17;102916.84;;;-5.75;95.23
75221;BME280;63802;53.232;6.570;2022-12-18T03:41:46;102919.09;;;-5.78;95.59
75221;BME280;63802;53.232;6.570;2022-12-18T03:44:28;102920.94;;;-5.79;94.80
75221;BME280;63802;53.232;6.570;2022-12-18T03:47:01;102915.41;;;-5.77;95.11
75221;BME280;63802;53.232;6.570;2022-12-18T03:49:58;102922.59;;;-5.71;95.04
75221;BME280;63802;53.232;6.570;2022-12-18T03:52:54;102918.06;;;-5.71;95.60
75221;BME280;63802;53.232;6.570;2022-12-18T03:55:18;102920.72;;;-5.71;95.44
75221;BME280;63802;53.232;6.570;2022-12-18T03:57:45;102917.06;;;-5.70;95.25
75221;BME280;63802;53.232;6.570;2022-12-18T04:00:15;102914.19;;;-5.68;94.52
75221;BME280;63802;53.232;6.570;2022-12-18T04:02:48;102915.00;;;-5.68;94.99
75221;BME280;63802;53.232;6.570;2022-12-18T04:05:17;102906.41;;;-5.70;95.38
75221;BME280;63802;53.232;6.570;2022-12-18T04:07:44;102901.94;;;-5.63;95.37
75221;BME280;63802;53.232;6.570;2022-12-18T04:10:14;102903.38;;;-5.60;94.86
75221;BME280;63802;53.232;6.570;2022-12-18T04:12:41;102915.00;;;-5.68;94.68
75221;BME280;63802;53.232;6.570;2022-12-18T04:15:08;102899.06;;;-5.68;95.01
75221;BME280;63802;53.232;6.570;2022-12-18T04:17:34;102914.78;;;-5.66;94.71
75221;BME280;63802;53.232;6.570;2022-12-18T04:19:59;102913.19;;;-5.67;94.96
75221;BME280;63802;53.232;6.570;2022-12-18T04:22:24;102912.13;;;-5.73;94.70
75221;BME280;63802;53.232;6.570;2022-12-18T04:24:50;102919.50;;;-5.75;94.41
75221;BME280;63802;53.232;6.570;2022-12-18T04:27:15;102919.28;;;-5.80;94.95
75221;BME280;63802;53.232;6.570;2022-12-18T04:29:41;102924.22;;;-5.77;94.71
75221;BME280;63802;53.232;6.570;2022-12-18T04:32:07;102923.16;;;-5.76;94.87
75221;BME280;63802;53.232;6.570;2022-12-18T04:34:32;102917.66;;;-5.81;94.89
75221;BME280;63802;53.232;6.570;2022-12-18T04:36:58;102926.03;;;-5.84;94.65
75221;BME280;63802;53.232;6.570;2022-12-18T04:39:23;102929.31;;;-5.82;94.51
75221;BME280;63802;53.232;6.570;2022-12-18T04:41:48;102932.38;;;-5.85;94.79
75221;BME280;63802;53.232;6.570;2022-12-18T04:44:14;102919.53;;;-5.88;94.19
75221;BME280;63802;53.232;6.570;2022-12-18T04:46:39;102923.81;;;-5.87;94.20
75221;BME280;63802;53.232;6.570;2022-12-18T04:49:05;102915.41;;;-5.84;94.02
75221;BME280;63802;53.232;6.570;2022-12-18T04:51:30;102920.13;;;-5.86;93.91
75221;BME280;63802;53.232;6.570;2022-12-18T04:53:56;102909.91;;;-5.89;94.35
75221;BME280;63802;53.232;6.570;2022-12-18T04:56:21;102907.25;;;-5.89;94.43
75221;BME280;63802;53.232;6.570;2022-12-18T04:58:47;102908.69;;;-5.93;94.60
75221;BME280;63802;53.232;6.570;2022-12-18T05:01:14;102926.84;;;-5.90;93.78
75221;BME280;63802;53.232;6.570;2022-12-18T05:03:40;102925.25;;;-5.91;93.77
75221;BME280;63802;53.232;6.570;2022-12-18T05:06:06;102929.72;;;-5.91;93.89
75221;BME280;63802;53.232;6.570;2022-12-18T05:08:32;102922.38;;;-5.96;94.39
75221;BME280;63802;53.232;6.570;2022-12-18T05:11:09;102927.69;;;-5.96;94.42
75221;BME280;63802;53.232;6.570;2022-12-18T05:13:35;102932.59;;;-5.93;93.60
75221;BME280;63802;53.232;6.570;2022-12-18T05:16:02;102933.81;;;-5.89;93.66
75221;BME280;63802;53.232;6.570;2022-12-18T05:18:28;102928.13;;;-5.86;93.80
75221;BME280;63802;53.232;6.570;2022-12-18T05:20:54;102934.22;;;-5.92;93.20
75221;BME280;63802;53.232;6.570;2022-12-18T05:23:20;102939.94;;;-5.95;93.45
75221;BME280;63802;53.232;6.570;2022-12-18T05:25:55;102928.28;;;-6.00;93.41
75221;BME280;63802;53.232;6.570;2022-12-18T05:28:21;102934.00;;;-5.97;93.25
75221;BME280;63802;53.232;6.570;2022-12-18T05:30:51;102928.06;;;-5.99;93.03
75221;BME280;63802;53.232;6.570;2022-12-18T05:33:17;102928.06;;;-6.05;93.10
75221;BME280;63802;53.232;6.570;2022-12-18T05:35:43;102929.91;;;-6.06;93.82
75221;BME280;63802;53.232;6.570;2022-12-18T05:38:08;102922.97;;;-6.07;93.14
75221;BME280;63802;53.232;6.570;2022-12-18T05:40:34;102935.81;;;-6.04;92.79
75221;BME280;63802;53.232;6.570;2022-12-18T05:42:59;102930.50;;;-6.04;92.77
75221;BME280;63802;53.232;6.570;2022-12-18T05:45:25;102930.94;;;-6.07;93.18
75221;BME280;63802;53.232;6.570;2022-12-18T05:47:50;102935.38;;;-6.14;93.21
75221;BME280;63802;53.232;6.570;2022-12-18T05:50:16;102924.75;;;-6.14;93.13
75221;BME280;63802;53.232;6.570;2022-12-18T05:52:41;102921.09;;;-6.13;92.52
75221;BME280;63802;53.232;6.570;2022-12-18T05:55:07;102934.59;;;-6.01;92.57
75221;BME280;63802;53.232;6.570;2022-12-18T05:57:32;102944.41;;;-6.02;92.76
75221;BME280;63802;53.232;6.570;2022-12-18T05:59:58;102948.28;;;-6.11;92.64
75221;BME280;63802;53.232;6.570;2022-12-18T06:02:23;102957.50;;;-6.07;92.60
75221;BME280;63802;53.232;6.570;2022-12-18T06:04:48;102959.50;;;-6.09;92.83
75221;BME280;63802;53.232;6.570;2022-12-18T06:07:14;102962.16;;;-6.09;92.12
75221;BME280;63802;53.232;6.570;2022-12-18T06:09:39;102963.59;;;-6.13;92.43
75221;BME280;63802;53.232;6.570;2022-12-18T06:12:06;102969.13;;;-6.08;91.88
75221;BME280;63802;53.232;6.570;2022-12-18T06:14:32;102973.44;;;-6.07;92.37
75221;BME280;63802;53.232;6.570;2022-12-18T06:16:57;102977.50;;;-6.04;92.37
75221;BME280;63802;53.232;6.570;2022-12-18T06:19:23;102982.41;;;-6.08;91.76
75221;BME280;63802;53.232;6.570;2022-12-18T06:21:48;102987.13;;;-6.10;92.34
75221;BME280;63802;53.232;6.570;2022-12-18T06:24:14;102989.78;;;-6.10;92.58
75221;BME280;63802;53.232;6.570;2022-12-18T06:26:40;102984.63;;;-6.12;92.09
75221;BME280;63802;53.232;6.570;2022-12-18T06:29:06;102970.13;;;-6.16;91.99
75221;BME280;63802;53.232;6.570;2022-12-18T06:31:31;102968.91;;;-6.20;92.05
75221;BME280;63802;53.232;6.570;2022-12-18T06:33:57;102976.66;;;-6.18;91.68
75221;BME280;63802;53.232;6.570;2022-12-18T06:36:22;102970.09;;;-6.22;91.46
75221;BME280;63802;53.232;6.570;2022-12-18T06:38:48;102969.91;;;-6.14;91.78
75221;BME280;63802;53.232;6.570;2022-12-18T06:41:16;102960.72;;;-6.18;91.64
75221;BME280;63802;53.232;6.570;2022-12-18T06:43:42;102954.78;;;-6.20;91.51
75221;BME280;63802;53.232;6.570;2022-12-18T06:46:08;102946.38;;;-6.24;91.47
75221;BME280;63802;53.232;6.570;2022-12-18T06:48:34;102941.06;;;-6.30;91.62
75221;BME280;63802;53.232;6.570;2022-12-18T06:50:59;102937.78;;;-6.26;91.02
75221;BME280;63802;53.232;6.570;2022-12-18T06:53:25;102942.69;;;-6.29;91.40
75221;BME280;63802;53.232;6.570;2022-12-18T06:55:51;102947.56;;;-6.33;91.35
75221;BME280;63802;53.232;6.570;2022-12-18T06:58:16;102932.69;;;-6.27;91.03
75221;BME280;63802;53.232;6.570;2022-12-18T07:00:42;102932.69;;;-6.27;91.15
75221;BME280;63802;53.232;6.570;2022-12-18T07:03:07;102924.94;;;-6.22;91.00
75221;BME280;63802;53.232;6.570;2022-12-18T07:05:33;102936.59;;;-6.23;91.07
75221;BME280;63802;53.232;6.570;2022-12-18T07:07:59;102924.72;;;-6.27;90.70
75221;BME280;63802;53.232;6.570;2022-12-18T07:10:24;102932.09;;;-6.23;90.89
75221;BME280;63802;53.232;6.570;2022-12-18T07:12:50;102923.53;;;-6.18;91.05
75221;BME280;63802;53.232;6.570;2022-12-18T07:15:15;102919.03;;;-6.18;91.42
75221;BME280;63802;53.232;6.570;2022-12-18T07:17:41;102907.75;;;-6.26;91.09
75221;BME280;63802;53.232;6.570;2022-12-18T07:20:07;102916.16;;;-6.16;90.72
75221;BME280;63802;53.232;6.570;2022-12-18T07:22:33;102908.81;;;-6.14;90.91
75221;BME280;63802;53.232;6.570;2022-12-18T07:24:58;102917.84;;;-6.02;91.00
75221;BME280;63802;53.232;6.570;2022-12-18T07:27:23;102915.00;;;-5.94;90.64
75221;BME280;63802;53.232;6.570;2022-12-18T07:29:49;102911.13;;;-5.98;90.58
75221;BME280;63802;53.232;6.570;2022-12-18T07:32:15;102901.09;;;-6.02;90.21
75221;BME280;63802;53.232;6.570;2022-12-18T07:34:41;102894.97;;;-6.03;90.60
75221;BME280;63802;53.232;6.570;2022-12-18T07:37:06;102915.00;;;-6.00;90.38
75221;BME280;63802;53.232;6.570;2022-12-18T07:39:32;102907.22;;;-6.02;90.78
75221;BME280;63802;53.232;6.570;2022-12-18T07:41:57;102904.38;;;-5.94;90.11
75221;BME280;63802;53.232;6.570;2022-12-18T07:44:43;102911.34;;;-5.93;89.82
75221;BME280;63802;53.232;6.570;2022-12-18T07:47:08;102909.28;;;-5.91;90.28
75221;BME280;63802;53.232;6.570;2022-12-18T07:49:34;102917.25;;;-5.91;89.68
75221;BME280;63802;53.232;6.570;2022-12-18T07:51:59;102914.19;;;-5.81;89.94
75221;BME280;63802;53.232;6.570;2022-12-18T07:54:25;102915.41;;;-5.84;89.62
75221;BME280;63802;53.232;6.570;2022-12-18T07:56:51;102918.69;;;-5.82;90.13
75221;BME280;63802;53.232;6.570;2022-12-18T07:59:16;102918.06;;;-5.84;89.35
75221;BME280;63802;53.232;6.570;2022-12-18T08:01:42;102927.28;;;-5.86;89.90
75221;BME280;63802;53.232;6.570;2022-12-18T08:04:07;102924.59;;;-5.80;89.70
75221;BME280;63802;53.232;6.570;2022-12-18T08:06:33;102928.31;;;-5.68;89.40
75221;BME280;63802;53.232;6.570;2022-12-18T08:08:58;102920.72;;;-5.71;88.88
75221;BME280;63802;53.232;6.570;2022-12-18T08:11:25;102933.00;;;-5.63;89.57
75221;BME280;63802;53.232;6.570;2022-12-18T08:13:51;102923.19;;;-5.63;89.11
75221;BME280;63802;53.232;6.570;2022-12-18T08:16:17;102907.66;;;-5.66;89.00
75221;BME280;63802;53.232;6.570;2022-12-18T08:18:43;102901.09;;;-5.70;89.40
75221;BME280;63802;53.232;6.570;2022-12-18T08:21:20;102915.00;;;-5.74;88.76
75221;BME280;63802;53.232;6.570;2022-12-18T08:23:48;102912.75;;;-5.84;89.25
75221;BME280;63802;53.232;6.570;2022-12-18T08:26:15;102914.00;;;-5.86;89.30
75221;BME280;63802;53.232;6.570;2022-12-18T08:28:41;102908.47;;;-5.91;88.85
75221;BME280;63802;53.232;6.570;2022-12-18T08:31:07;102909.69;;;-5.94;89.30
75221;BME280;63802;53.232;6.570;2022-12-18T08:33:33;102919.50;;;-6.01;88.69
75221;BME280;63802;53.232;6.570;2022-12-18T08:35:59;102908.25;;;-6.03;89.38
75221;BME280;63802;53.232;6.570;2022-12-18T08:38:25;102919.88;;;-6.04;88.92
75221;BME280;63802;53.232;6.570;2022-12-18T08:41:01;102921.13;;;-6.00;88.94
75221;BME280;63802;53.232;6.570;2022-12-18T08:43:27;102916.63;;;-5.99;89.15
75221;BME280;63802;53.232;6.570;2022-12-18T08:46:11;102917.44;;;-5.99;88.88
75221;BME280;63802;53.232;6.570;2022-12-18T08:48:37;102924.38;;;-6.04;88.53
75221;BME280;63802;53.232;6.570;2022-12-18T08:51:02;102933.00;;;-6.02;89.10
75221;BME280;63802;53.232;6.570;2022-12-18T08:53:28;102932.94;;;-6.09;88.76
75221;BME280;63802;53.232;6.570;2022-12-18T08:55:55;102937.66;;;-6.11;88.05
75221;BME280;63802;53.232;6.570;2022-12-18T08:58:21;102943.56;;;-6.09;88.63
75221;BME280;63802;53.232;6.570;2022-12-18T09:00:46;102934.16;;;-6.12;88.56
75221;BME280;63802;53.232;6.570;2022-12-18T09:03:16;102944.84;;;-6.05;88.48
75221;BME280;63802;53.232;6.570;2022-12-18T09:05:43;102929.69;;;-6.11;88.61
75221;BME280;63802;53.232;6.570;2022-12-18T09:08:10;102939.75;;;-6.00;88.54
75221;BME280;63802;53.232;6.570;2022-12-18T09:10:42;102946.50;;;-5.91;88.46
75221;BME280;63802;53.232;6.570;2022-12-18T09:13:09;102942.19;;;-5.85;88.07
75221;BME280;63802;53.232;6.570;2022-12-18T09:15:46;102946.47;;;-5.78;87.95
75221;BME280;63802;53.232;6.570;2022-12-18T09:18:13;102948.13;;;-5.77;88.59
75221;BME280;63802;53.232;6.570;2022-12-18T09:20:38;102940.78;;;-5.75;88.02
75221;BME280;63802;53.232;6.570;2022-12-18T09:23:05;102938.72;;;-5.73;87.86
75221;BME280;63802;53.232;6.570;2022-12-18T09:25:32;102938.31;;;-5.70;88.01
75221;BME280;63802;53.232;6.570;2022-12-18T09:28:18;102932.19;;;-5.64;87.72
75221;BME280;63802;53.232;6.570;2022-12-18T09:30:48;102943.66;;;-5.57;87.61
75221;BME280;63802;53.232;6.570;2022-12-18T09:33:15;102941.41;;;-5.53;87.47
75221;BME280;63802;53.232;6.570;2022-12-18T09:35:42;102931.38;;;-5.45;87.82
75221;BME280;63802;53.232;6.570;2022-12-18T09:38:11;102926.25;;;-5.39;87.71
75221;BME280;63802;53.232;6.570;2022-12-18T09:40:46;102901.72;;;-5.28;87.22
75221;BME280;63802;53.232;6.570;2022-12-18T09:43:37;102901.50;;;-5.20;87.30
75221;BME280;63802;53.232;6.570;2022-12-18T09:46:08;102911.94;;;-5.12;87.33
75221;BME280;63802;53.232;6.570;2022-12-18T09:48:39;102919.50;;;-5.09;87.05
75221;BME280;63802;53.232;6.570;2022-12-18T09:51:15;102921.75;;;-5.06;87.52
75221;BME280;63802;53.232;6.570;2022-12-18T09:53:45;102918.25;;;-5.00;87.12
75221;BME280;63802;53.232;6.570;2022-12-18T09:56:16;102910.47;;;-5.08;87.19
75221;BME280;63802;53.232;6.570;2022-12-18T09:58:47;102900.84;;;-5.03;87.43
75221;BME280;63802;53.232;6.570;2022-12-18T10:01:18;102893.91;;;-4.97;87.09
75221;BME280;63802;53.232;6.570;2022-12-18T10:03:46;102904.31;;;-4.96;86.97
75221;BME280;63802;53.232;6.570;2022-12-18T10:11:46;102911.00;;;-4.67;87.03
75221;BME280;63802;53.232;6.570;2022-12-18T10:23:03;102895.38;;;-3.81;86.32
75221;BME280;63802;53.232;6.570;2022-12-18T10:25:25;102895.81;;;-3.53;85.75
75221;BME280;63802;53.232;6.570;2022-12-18T10:27:57;102887.25;;;-3.37;85.38
75221;BME280;63802;53.232;6.570;2022-12-18T10:30:25;102898.44;;;-3.28;84.73
75221;BME280;63802;53.232;6.570;2022-12-18T10:32:51;102896.91;;;-3.36;84.60
75221;BME280;63802;53.232;6.570;2022-12-18T10:35:22;102886.66;;;-3.39;83.98
75221;BME280;63802;53.232;6.570;2022-12-18T10:38:22;102879.41;;;-3.57;84.09
75221;BME280;63802;53.232;6.570;2022-12-18T10:48:41;102850.50;;;-3.84;84.05
75221;BME280;63802;53.232;6.570;2022-12-18T10:54:20;102833.84;;;-3.80;83.66
75221;BME280;63802;53.232;6.570;2022-12-18T10:56:47;102826.22;;;-3.76;83.83
75221;BME280;63802;53.232;6.570;2022-12-18T10:59:14;102833.38;;;-3.70;83.94
75221;BME280;63802;53.232;6.570;2022-12-18T11:04:35;102835.53;;;-3.61;83.80
75221;BME280;63802;53.232;6.570;2022-12-18T11:07:14;102823.22;;;-3.62;83.06
75221;BME280;63802;53.232;6.570;2022-12-18T11:09:40;102818.88;;;-3.56;83.64
75221;BME280;63802;53.232;6.570;2022-12-18T11:12:15;102824.38;;;-3.51;83.12
75221;BME280;63802;53.232;6.570;2022-12-18T11:14:44;102822.59;;;-3.39;82.85
75221;BME280;63802;53.232;6.570;2022-12-18T11:17:31;102808.38;;;-3.33;82.88
75221;BME280;63802;53.232;6.570;2022-12-18T11:20:05;102807.25;;;-3.25;83.28
75221;BME280;63802;53.232;6.570;2022-12-18T11:22:36;102808.09;;;-3.25;82.79
75221;BME280;63802;53.232;6.570;2022-12-18T11:27:29;102807.81;;;-3.17;82.50
75221;BME280;63802;53.232;6.570;2022-12-18T11:30:29;102795.19;;;-3.10;82.94
75221;BME280;63802;53.232;6.570;2022-12-18T11:32:58;102803.34;;;-3.05;82.36
75221;BME280;63802;53.232;6.570;2022-12-18T11:36:03;102798.13;;;-3.00;82.61
75221;BME280;63802;53.232;6.570;2022-12-18T11:38:32;102796.66;;;-2.96;82.43
75221;BME280;63802;53.232;6.570;2022-12-18T11:41:15;102799.94;;;-2.94;81.74
75221;BME280;63802;53.232;6.570;2022-12-18T11:43:50;102803.91;;;-2.85;82.12
75221;BME280;63802;53.232;6.570;2022-12-18T11:46:24;102801.00;;;-2.83;81.88
75221;BME280;63802;53.232;6.570;2022-12-18T11:49:01;102795.38;;;-2.75;81.66
75221;BME280;63802;53.232;6.570;2022-12-18T11:51:36;102775.84;;;-2.76;81.60
75221;BME280;63802;53.232;6.570;2022-12-18T11:54:13;102764.72;;;-2.73;81.65
75221;BME280;63802;53.232;6.570;2022-12-18T11:56:51;102764.72;;;-2.73;81.69
75221;BME280;63802;53.232;6.570;2022-12-18T11:59:28;102757.78;;;-2.74;81.25
75221;BME280;63802;53.232;6.570;2022-12-18T12:07:36;102751.13;;;-2.71;81.52
75221;BME280;63802;53.232;6.570;2022-12-18T12:39:05;102672.22;;;-2.32;80.75
75221;BME280;63802;53.232;6.570;2022-12-18T12:41:13;102675.25;;;-2.29;80.77
75221;BME280;63802;53.232;6.570;2022-12-18T12:44:02;102666.41;;;-2.29;80.51
75221;BME280;63802;53.232;6.570;2022-12-18T12:46:31;102659.44;;;-2.30;80.15
75221;BME280;63802;53.232;6.570;2022-12-18T12:49:00;102645.59;;;-2.27;80.07
75221;BME280;63802;53.232;6.570;2022-12-18T12:51:30;102646.78;;;-2.23;79.76
75221;BME280;63802;53.232;6.570;2022-12-18T12:53:58;102645.72;;;-2.22;80.10
75221;BME280;63802;53.232;6.570;2022-12-18T12:56:39;102633.06;;;-2.15;79.46
75221;BME280;63802;53.232;6.570;2022-12-18T12:59:13;102632.59;;;-2.12;79.58
75221;BME280;63802;53.232;6.570;2022-12-18T13:01:54;102634.56;;;-2.08;79.28
75221;BME280;63802;53.232;6.570;2022-12-18T13:05:18;102638.19;;;-2.02;79.46
75221;BME280;63802;53.232;6.570;2022-12-18T13:07:39;102624.31;;;-1.99;78.99
75221;BME280;63802;53.232;6.570;2022-12-18T13:12:36;102627.56;;;-1.85;78.61
75221;BME280;63802;53.232;6.570;2022-12-18T13:15:30;102621.41;;;-1.86;78.59
75221;BME280;63802;53.232;6.570;2022-12-18T13:20:38;102614.06;;;-1.79;77.70
75221;BME280;63802;53.232;6.570;2022-12-18T13:25:55;102612.06;;;-1.72;77.63
75221;BME280;63802;53.232;6.570;2022-12-18T13:31:02;102601.25;;;-1.77;76.88
75221;BME280;63802;53.232;6.570;2022-12-18T13:38:40;102584.63;;;-1.79;76.98
75221;BME280;63802;53.232;6.570;2022-12-18T13:43:53;102586.03;;;-1.76;77.25
75221;BME280;63802;53.232;6.570;2022-12-18T13:49:01;102583.59;;;-1.78;76.55
75221;BME280;63802;53.232;6.570;2022-12-18T13:51:29;102582.06;;;-1.74;76.20
75221;BME280;63802;53.232;6.570;2022-12-18T13:54:17;102575.66;;;-1.73;76.61
75221;BME280;63802;53.232;6.570;2022-12-18T13:56:45;102584.50;;;-1.72;75.86
75221;BME280;63802;53.232;6.570;2022-12-18T13:59:21;102577.84;;;-1.70;75.91
75221;BME280;63802;53.232;6.570;2022-12-18T14:04:32;102577.28;;;-1.72;75.44
75221;BME280;63802;53.232;6.570;2022-12-18T14:07:01;102571.34;;;-1.74;75.36
75221;BME280;63802;53.232;6.570;2022-12-18T14:09:30;102568.56;;;-1.79;75.44
75221;BME280;63802;53.232;6.570;2022-12-18T14:11:56;102552.41;;;-1.84;76.04
75221;BME280;63802;53.232;6.570;2022-12-18T14:14:45;102555.00;;;-1.89;76.33
75221;BME280;63802;53.232;6.570;2022-12-18T14:17:13;102558.72;;;-1.90;76.08
75221;BME280;63802;53.232;6.570;2022-12-18T14:19:44;102553.47;;;-1.85;75.93
75221;BME280;63802;53.232;6.570;2022-12-18T14:22:16;102559.16;;;-1.81;75.53
75221;BME280;63802;53.232;6.570;2022-12-18T14:24:43;102554.53;;;-1.86;75.36
75221;BME280;63802;53.232;6.570;2022-12-18T14:27:24;102556.84;;;-1.89;75.87
75221;BME280;63802;53.232;6.570;2022-12-18T14:29:50;102547.44;;;-1.92;75.83
75221;BME280;63802;53.232;6.570;2022-12-18T14:32:18;102544.75;;;-1.92;75.29
75221;BME280;63802;53.232;6.570;2022-12-18T14:34:52;102545.47;;;-1.96;75.91
75221;BME280;63802;53.232;6.570;2022-12-18T14:37:24;102536.06;;;-1.99;76.00
75221;BME280;63802;53.232;6.570;2022-12-18T14:40:00;102539.53;;;-1.98;76.00
75221;BME280;63802;53.232;6.570;2022-12-18T14:42:27;102531.78;;;-2.00;76.25
75221;BME280;63802;53.232;6.570;2022-12-18T14:47:56;102522.94;;;-2.00;76.04